sensor_id;sensor_type;location;lat;lon;timestamp;temperature;humidity
49861;DHT22;35761;48.826;9.238;2023-01-29T00:00:16;0.90;48.50
49861;DHT22;35761;48.826;9.238;2023-01-29T00:02:45;0.90;48.80
49861;DHT22;35761;48.826;9.238;2023-01-29T00:05:13;0.90;48.60
49861;DHT22;35761;48.826;9.238;2023-01-29T00:07:54;0.90;48.60
49861;DHT22;35761;48.826;9.238;2023-01-29T00:10:24;0.80;48.50
49861;DHT22;35761;48.826;9.238;2023-01-29T00:12:53;0.80;48.60
49861;DHT22;35761;48.826;9.238;2023-01-29T00:15:21;0.80;48.50
49861;DHT22;35761;48.826;9.238;2023-01-29T00:17:50;0.80;48.60
49861;DHT22;35761;48.826;9.238;2023-01-29T00:20:18;0.70;48.80
49861;DHT22;35761;48.826;9.238;2023-01-29T00:22:46;0.80;48.70
49861;DHT22;35761;48.826;9.238;2023-01-29T00:25:15;0.90;48.70
49861;DHT22;35761;48.826;9.238;2023-01-29T00:27:45;0.80;48.60
49861;DHT22;35761;48.826;9.238;2023-01-29T00:30:14;0.80;48.80
49861;DHT22;35761;48.826;9.238;2023-01-29T00:32:46;0.80;48.80
49861;DHT22;35761;48.826;9.238;2023-01-29T00:35:14;0.80;48.70
49861;DHT22;35761;48.826;9.238;2023-01-29T00:37:43;0.80;48.80
49861;DHT22;35761;48.826;9.238;2023-01-29T00:40:12;0.80;49.00
49861;DHT22;35761;48.826;9.238;2023-01-29T00:42:44;0.80;49.00
49861;DHT22;35761;48.826;9.238;2023-01-29T00:45:31;0.80;48.90
49861;DHT22;35761;48.826;9.238;2023-01-29T00:48:00;0.80;48.80
49861;DHT22;35761;48.826;9.238;2023-01-29T00:50:28;0.80;48.70
49861;DHT22;35761;48.826;9.238;2023-01-29T00:52:57;0.80;48.90
49861;DHT22;35761;48.826;9.238;2023-01-29T00:55:26;0.80;49.30
49861;DHT22;35761;48.826;9.238;2023-01-29T00:57:55;0.80;48.90
49861;DHT22;35761;48.826;9.238;2023-01-29T01:00:24;0.80;49.30
49861;DHT22;35761;48.826;9.238;2023-01-29T01:02:52;0.80;48.60
49861;DHT22;35761;48.826;9.238;2023-01-29T01:05:32;0.80;49.10
49861;DHT22;35761;48.826;9.238;2023-01-29T01:08:03;0.70;48.30
49861;DHT22;35761;48.826;9.238;2023-01-29T01:10:58;0.70;48.40
49861;DHT22;35761;48.826;9.238;2023-01-29T01:13:27;0.80;48.40
49861;DHT22;35761;48.826;9.238;2023-01-29T01:15:56;0.80;48.80
49861;DHT22;35761;48.826;9.238;2023-01-29T01:18:28;0.80;48.40
49861;DHT22;35761;48.826;9.238;2023-01-29T01:20:58;0.80;48.50
49861;DHT22;35761;48.826;9.238;2023-01-29T01:23:26;0.80;48.40
49861;DHT22;35761;48.826;9.238;2023-01-29T01:25:55;0.80;48.50
49861;DHT22;35761;48.826;9.238;2023-01-29T01:28:23;0.80;48.50
49861;DHT22;35761;48.826;9.238;2023-01-29T01:30:53;0.80;48.20
49861;DHT22;35761;48.826;9.238;2023-01-29T01:33:22;0.80;48.00
49861;DHT22;35761;48.826;9.238;2023-01-29T01:35:51;0.70;47.90
49861;DHT22;35761;48.826;9.238;2023-01-29T01:38:20;0.70;47.70
49861;DHT22;35761;48.826;9.238;2023-01-29T01:40:48;0.70;47.90
49861;DHT22;35761;48.826;9.238;2023-01-29T01:43:17;0.70;47.90
49861;DHT22;35761;48.826;9.238;2023-01-29T01:45:45;0.70;47.70
49861;DHT22;35761;48.826;9.238;2023-01-29T01:48:17;0.70;47.70
49861;DHT22;35761;48.826;9.238;2023-01-29T01:50:51;0.70;47.70
49861;DHT22;35761;48.826;9.238;2023-01-29T01:53:25;0.70;47.90
49861;DHT22;35761;48.826;9.238;2023-01-29T01:55:58;0.70;48.20
49861;DHT22;35761;48.826;9.238;2023-01-29T01:58:32;0.70;48.10
49861;DHT22;35761;48.826;9.238;2023-01-29T02:01:03;0.60;48.20
49861;DHT22;35761;48.826;9.238;2023-01-29T02:03:38;0.60;48.20
49861;DHT22;35761;48.826;9.238;2023-01-29T02:06:27;0.60;48.30
49861;DHT22;35761;48.826;9.238;2023-01-29T02:09:18;0.60;48.80
49861;DHT22;35761;48.826;9.238;2023-01-29T02:12:01;0.70;48.10
49861;DHT22;35761;48.826;9.238;2023-01-29T02:14:32;0.70;48.30
49861;DHT22;35761;48.826;9.238;2023-01-29T02:17:05;0.60;48.00
49861;DHT22;35761;48.826;9.238;2023-01-29T02:19:42;0.60;48.10
49861;DHT22;35761;48.826;9.238;2023-01-29T02:22:28;0.60;47.90
49861;DHT22;35761;48.826;9.238;2023-01-29T02:25:30;0.60;47.80
49861;DHT22;35761;48.826;9.238;2023-01-29T02:28:28;0.60;48.00
49861;DHT22;35761;48.826;9.238;2023-01-29T02:31:06;0.60;47.90
49861;DHT22;35761;48.826;9.238;2023-01-29T02:33:47;0.60;47.90
49861;DHT22;35761;48.826;9.238;2023-01-29T02:36:36;0.60;47.90
49861;DHT22;35761;48.826;9.238;2023-01-29T02:39:14;0.60;47.90
49861;DHT22;35761;48.826;9.238;2023-01-29T02:41:50;0.50;47.60
49861;DHT22;35761;48.826;9.238;2023-01-29T02:44:27;0.50;47.30
49861;DHT22;35761;48.826;9.238;2023-01-29T02:47:03;0.50;47.80
49861;DHT22;35761;48.826;9.238;2023-01-29T02:49:41;0.50;47.80
49861;DHT22;35761;48.826;9.238;2023-01-29T02:52:16;0.50;47.80
49861;DHT22;35761;48.826;9.238;2023-01-29T02:54:51;0.50;47.90
49861;DHT22;35761;48.826;9.238;2023-01-29T02:57:25;0.60;48.10
49861;DHT22;35761;48.826;9.238;2023-01-29T02:59:59;0.50;48.30
49861;DHT22;35761;48.826;9.238;2023-01-29T03:02:37;0.50;48.30
49861;DHT22;35761;48.826;9.238;2023-01-29T03:05:13;0.60;48.40
49861;DHT22;35761;48.826;9.238;2023-01-29T03:07:46;0.50;48.40
49861;DHT22;35761;48.826;9.238;2023-01-29T03:10:29;0.50;48.00
49861;DHT22;35761;48.826;9.238;2023-01-29T03:13:02;0.50;47.70
49861;DHT22;35761;48.826;9.238;2023-01-29T03:15:41;0.50;47.50
49861;DHT22;35761;48.826;9.238;2023-01-29T03:18:35;0.50;47.70
49861;DHT22;35761;48.826;9.238;2023-01-29T03:21:13;0.50;47.40
49861;DHT22;35761;48.826;9.238;2023-01-29T03:24:05;0.50;47.50
49861;DHT22;35761;48.826;9.238;2023-01-29T03:26:55;0.50;47.70
49861;DHT22;35761;48.826;9.238;2023-01-29T03:29:44;0.50;46.80
49861;DHT22;35761;48.826;9.238;2023-01-29T03:32:54;0.40;46.70
49861;DHT22;35761;48.826;9.238;2023-01-29T03:35:27;0.40;47.00
49861;DHT22;35761;48.826;9.238;2023-01-29T03:38:02;0.40;47.10
49861;DHT22;35761;48.826;9.238;2023-01-29T03:40:35;0.40;47.20
49861;DHT22;35761;48.826;9.238;2023-01-29T03:43:10;0.40;47.00
49861;DHT22;35761;48.826;9.238;2023-01-29T03:45:48;0.40;46.50
49861;DHT22;35761;48.826;9.238;2023-01-29T03:48:29;0.40;46.70
49861;DHT22;35761;48.826;9.238;2023-01-29T03:51:14;0.40;46.60
49861;DHT22;35761;48.826;9.238;2023-01-29T03:53:50;0.40;46.40
49861;DHT22;35761;48.826;9.238;2023-01-29T03:56:33;0.40;46.10
49861;DHT22;35761;48.826;9.238;2023-01-29T03:59:18;0.30;46.00
49861;DHT22;35761;48.826;9.238;2023-01-29T04:02:05;0.40;46.10
49861;DHT22;35761;48.826;9.238;2023-01-29T04:04:39;0.30;46.10
49861;DHT22;35761;48.826;9.238;2023-01-29T04:07:13;0.30;46.40
49861;DHT22;35761;48.826;9.238;2023-01-29T04:09:46;0.30;46.70
49861;DHT22;35761;48.826;9.238;2023-01-29T04:12:20;0.30;46.80
49861;DHT22;35761;48.826;9.238;2023-01-29T04:14:53;0.30;46.70
49861;DHT22;35761;48.826;9.238;2023-01-29T04:17:26;0.30;46.60
49861;DHT22;35761;48.826;9.238;2023-01-29T04:20:12;0.30;46.70
49861;DHT22;35761;48.826;9.238;2023-01-29T04:22:44;0.30;46.60
49861;DHT22;35761;48.826;9.238;2023-01-29T04:25:15;0.30;46.60
49861;DHT22;35761;48.826;9.238;2023-01-29T04:27:54;0.30;46.60
49861;DHT22;35761;48.826;9.238;2023-01-29T04:30:32;0.30;46.60
49861;DHT22;35761;48.826;9.238;2023-01-29T04:33:16;0.40;46.70
49861;DHT22;35761;48.826;9.238;2023-01-29T04:36:01;0.30;46.30
49861;DHT22;35761;48.826;9.238;2023-01-29T04:38:46;0.30;46.10
49861;DHT22;35761;48.826;9.238;2023-01-29T04:41:21;0.20;45.90
49861;DHT22;35761;48.826;9.238;2023-01-29T04:43:59;0.20;46.10
49861;DHT22;35761;48.826;9.238;2023-01-29T04:46:34;0.20;46.30
49861;DHT22;35761;48.826;9.238;2023-01-29T04:49:17;0.30;46.50
49861;DHT22;35761;48.826;9.238;2023-01-29T04:51:57;0.30;46.50
49861;DHT22;35761;48.826;9.238;2023-01-29T04:54:35;0.30;46.40
49861;DHT22;35761;48.826;9.238;2023-01-29T04:57:23;0.20;46.50
49861;DHT22;35761;48.826;9.238;2023-01-29T04:59:58;0.30;46.50
49861;DHT22;35761;48.826;9.238;2023-01-29T05:02:28;0.30;46.50
49861;DHT22;35761;48.826;9.238;2023-01-29T05:04:58;0.20;46.30
49861;DHT22;35761;48.826;9.238;2023-01-29T05:07:28;0.20;46.50
49861;DHT22;35761;48.826;9.238;2023-01-29T05:09:58;0.20;46.60
49861;DHT22;35761;48.826;9.238;2023-01-29T05:12:28;0.20;46.60
49861;DHT22;35761;48.826;9.238;2023-01-29T05:15:00;0.20;47.00
49861;DHT22;35761;48.826;9.238;2023-01-29T05:17:31;0.20;47.30
49861;DHT22;35761;48.826;9.238;2023-01-29T05:20:00;0.20;47.60
49861;DHT22;35761;48.826;9.238;2023-01-29T05:22:30;0.20;47.70
49861;DHT22;35761;48.826;9.238;2023-01-29T05:24:58;0.20;47.30
49861;DHT22;35761;48.826;9.238;2023-01-29T05:27:31;0.20;47.40
49861;DHT22;35761;48.826;9.238;2023-01-29T05:30:19;0.20;47.70
49861;DHT22;35761;48.826;9.238;2023-01-29T05:32:47;0.10;47.80
49861;DHT22;35761;48.826;9.238;2023-01-29T05:35:16;0.20;47.80
49861;DHT22;35761;48.826;9.238;2023-01-29T05:37:45;0.20;47.90
49861;DHT22;35761;48.826;9.238;2023-01-29T05:40:14;0.20;47.80
49861;DHT22;35761;48.826;9.238;2023-01-29T05:42:43;0.20;47.70
49861;DHT22;35761;48.826;9.238;2023-01-29T05:45:11;0.20;47.60
49861;DHT22;35761;48.826;9.238;2023-01-29T05:47:40;0.20;48.40
49861;DHT22;35761;48.826;9.238;2023-01-29T05:50:09;0.20;47.90
49861;DHT22;35761;48.826;9.238;2023-01-29T05:52:38;0.20;47.60
49861;DHT22;35761;48.826;9.238;2023-01-29T05:55:09;0.20;47.40
49861;DHT22;35761;48.826;9.238;2023-01-29T05:57:39;0.20;47.70
49861;DHT22;35761;48.826;9.238;2023-01-29T06:00:08;0.20;47.70
49861;DHT22;35761;48.826;9.238;2023-01-29T06:02:38;0.20;47.80
49861;DHT22;35761;48.826;9.238;2023-01-29T06:05:08;0.20;47.80
49861;DHT22;35761;48.826;9.238;2023-01-29T06:07:36;0.20;47.80
49861;DHT22;35761;48.826;9.238;2023-01-29T06:10:11;0.20;47.80
49861;DHT22;35761;48.826;9.238;2023-01-29T06:12:40;0.20;47.90
49861;DHT22;35761;48.826;9.238;2023-01-29T06:15:10;0.20;48.60
49861;DHT22;35761;48.826;9.238;2023-01-29T06:17:41;0.20;48.50
49861;DHT22;35761;48.826;9.238;2023-01-29T06:20:10;0.20;49.10
49861;DHT22;35761;48.826;9.238;2023-01-29T06:22:39;0.20;48.40
49861;DHT22;35761;48.826;9.238;2023-01-29T06:25:09;0.20;48.40
49861;DHT22;35761;48.826;9.238;2023-01-29T06:27:38;0.10;48.70
49861;DHT22;35761;48.826;9.238;2023-01-29T06:30:07;0.10;48.40
49861;DHT22;35761;48.826;9.238;2023-01-29T06:32:36;0.20;48.20
49861;DHT22;35761;48.826;9.238;2023-01-29T06:35:05;0.10;47.70
49861;DHT22;35761;48.826;9.238;2023-01-29T06:37:35;0.10;47.80
49861;DHT22;35761;48.826;9.238;2023-01-29T06:40:05;0.10;47.80
49861;DHT22;35761;48.826;9.238;2023-01-29T06:42:36;0.10;47.80
49861;DHT22;35761;48.826;9.238;2023-01-29T06:45:05;0.10;47.80
49861;DHT22;35761;48.826;9.238;2023-01-29T06:47:34;0.10;47.90
49861;DHT22;35761;48.826;9.238;2023-01-29T06:50:03;0.10;47.90
49861;DHT22;35761;48.826;9.238;2023-01-29T06:52:31;0.10;47.70
49861;DHT22;35761;48.826;9.238;2023-01-29T06:55:00;0.10;47.60
49861;DHT22;35761;48.826;9.238;2023-01-29T06:57:28;0.10;47.60
49861;DHT22;35761;48.826;9.238;2023-01-29T06:59:58;0.10;47.80
49861;DHT22;35761;48.826;9.238;2023-01-29T07:02:27;0.10;47.90
49861;DHT22;35761;48.826;9.238;2023-01-29T07:04:56;0.10;48.00
49861;DHT22;35761;48.826;9.238;2023-01-29T07:07:24;0.10;48.20
49861;DHT22;35761;48.826;9.238;2023-01-29T07:09:52;0.10;48.20
49861;DHT22;35761;48.826;9.238;2023-01-29T07:12:20;0.00;49.00
49861;DHT22;35761;48.826;9.238;2023-01-29T07:14:49;0.10;48.60
49861;DHT22;35761;48.826;9.238;2023-01-29T07:17:18;0.10;48.80
49861;DHT22;35761;48.826;9.238;2023-01-29T07:19:47;0.10;47.90
49861;DHT22;35761;48.826;9.238;2023-01-29T07:22:15;0.00;48.00
49861;DHT22;35761;48.826;9.238;2023-01-29T07:24:44;0.00;47.90
49861;DHT22;35761;48.826;9.238;2023-01-29T07:27:14;0.00;47.90
49861;DHT22;35761;48.826;9.238;2023-01-29T07:29:42;0.00;47.90
49861;DHT22;35761;48.826;9.238;2023-01-29T07:32:10;0.00;48.20
49861;DHT22;35761;48.826;9.238;2023-01-29T07:34:40;0.00;48.70
49861;DHT22;35761;48.826;9.238;2023-01-29T07:37:10;0.00;48.90
49861;DHT22;35761;48.826;9.238;2023-01-29T07:39:38;0.00;49.40
49861;DHT22;35761;48.826;9.238;2023-01-29T07:42:07;0.00;49.50
49861;DHT22;35761;48.826;9.238;2023-01-29T07:44:35;0.00;49.20
49861;DHT22;35761;48.826;9.238;2023-01-29T07:47:03;0.10;49.10
49861;DHT22;35761;48.826;9.238;2023-01-29T07:49:32;0.00;48.70
49861;DHT22;35761;48.826;9.238;2023-01-29T07:52:02;0.00;48.70
49861;DHT22;35761;48.826;9.238;2023-01-29T07:54:30;0.00;48.70
49861;DHT22;35761;48.826;9.238;2023-01-29T07:56:59;0.00;48.60
49861;DHT22;35761;48.826;9.238;2023-01-29T07:59:27;0.00;48.60
49861;DHT22;35761;48.826;9.238;2023-01-29T08:01:56;0.00;48.80
49861;DHT22;35761;48.826;9.238;2023-01-29T08:04:24;0.00;49.00
49861;DHT22;35761;48.826;9.238;2023-01-29T08:06:53;0.10;49.40
49861;DHT22;35761;48.826;9.238;2023-01-29T08:09:22;0.10;49.90
49861;DHT22;35761;48.826;9.238;2023-01-29T08:11:51;0.10;49.40
49861;DHT22;35761;48.826;9.238;2023-01-29T08:14:19;0.10;48.80
49861;DHT22;35761;48.826;9.238;2023-01-29T08:16:48;0.10;48.70
49861;DHT22;35761;48.826;9.238;2023-01-29T08:19:16;0.10;48.70
49861;DHT22;35761;48.826;9.238;2023-01-29T08:21:44;0.10;49.10
49861;DHT22;35761;48.826;9.238;2023-01-29T08:24:13;0.10;48.50
49861;DHT22;35761;48.826;9.238;2023-01-29T08:26:42;0.10;48.80
49861;DHT22;35761;48.826;9.238;2023-01-29T08:29:11;0.10;48.90
49861;DHT22;35761;48.826;9.238;2023-01-29T08:31:40;0.10;49.20
49861;DHT22;35761;48.826;9.238;2023-01-29T08:34:08;0.20;49.20
49861;DHT22;35761;48.826;9.238;2023-01-29T08:36:36;0.20;49.70
49861;DHT22;35761;48.826;9.238;2023-01-29T08:39:05;0.20;50.40
49861;DHT22;35761;48.826;9.238;2023-01-29T08:41:33;0.20;49.30
49861;DHT22;35761;48.826;9.238;2023-01-29T08:44:03;0.20;49.30
49861;DHT22;35761;48.826;9.238;2023-01-29T08:46:32;0.20;49.20
49861;DHT22;35761;48.826;9.238;2023-01-29T08:49:00;0.20;49.00
49861;DHT22;35761;48.826;9.238;2023-01-29T08:51:29;0.20;49.00
49861;DHT22;35761;48.826;9.238;2023-01-29T08:53:57;0.20;49.00
49861;DHT22;35761;48.826;9.238;2023-01-29T08:56:26;0.20;49.30
49861;DHT22;35761;48.826;9.238;2023-01-29T08:58:54;0.30;49.50
49861;DHT22;35761;48.826;9.238;2023-01-29T09:01:26;0.30;49.80
49861;DHT22;35761;48.826;9.238;2023-01-29T09:03:54;0.30;50.00
49861;DHT22;35761;48.826;9.238;2023-01-29T09:06:22;0.30;50.10
49861;DHT22;35761;48.826;9.238;2023-01-29T09:08:51;0.30;50.60
49861;DHT22;35761;48.826;9.238;2023-01-29T09:11:19;0.40;51.00
49861;DHT22;35761;48.826;9.238;2023-01-29T09:13:48;0.40;50.40
49861;DHT22;35761;48.826;9.238;2023-01-29T09:16:16;0.40;50.20
49861;DHT22;35761;48.826;9.238;2023-01-29T09:18:46;0.40;50.40
49861;DHT22;35761;48.826;9.238;2023-01-29T09:21:14;0.40;50.30
49861;DHT22;35761;48.826;9.238;2023-01-29T09:23:42;0.40;49.90
49861;DHT22;35761;48.826;9.238;2023-01-29T09:26:11;0.40;49.80
49861;DHT22;35761;48.826;9.238;2023-01-29T09:28:39;0.40;49.70
49861;DHT22;35761;48.826;9.238;2023-01-29T09:31:07;0.50;49.70
49861;DHT22;35761;48.826;9.238;2023-01-29T09:33:36;0.50;50.00
49861;DHT22;35761;48.826;9.238;2023-01-29T09:36:06;0.50;50.10
49861;DHT22;35761;48.826;9.238;2023-01-29T09:38:35;0.50;49.70
49861;DHT22;35761;48.826;9.238;2023-01-29T09:41:12;0.50;49.70
49861;DHT22;35761;48.826;9.238;2023-01-29T09:43:50;0.50;49.70
49861;DHT22;35761;48.826;9.238;2023-01-29T09:46:23;0.50;49.60
49861;DHT22;35761;48.826;9.238;2023-01-29T09:48:56;0.60;49.70
49861;DHT22;35761;48.826;9.238;2023-01-29T09:51:34;0.60;49.80
49861;DHT22;35761;48.826;9.238;2023-01-29T09:54:13;0.60;49.50
49861;DHT22;35761;48.826;9.238;2023-01-29T09:56:47;0.60;49.70
49861;DHT22;35761;48.826;9.238;2023-01-29T09:59:20;0.70;50.20
49861;DHT22;35761;48.826;9.238;2023-01-29T10:01:58;0.70;50.00
49861;DHT22;35761;48.826;9.238;2023-01-29T10:04:47;0.70;49.90
49861;DHT22;35761;48.826;9.238;2023-01-29T10:07:58;0.80;49.80
49861;DHT22;35761;48.826;9.238;2023-01-29T10:10:42;0.80;49.70
49861;DHT22;35761;48.826;9.238;2023-01-29T10:13:24;0.90;49.30
49861;DHT22;35761;48.826;9.238;2023-01-29T10:16:12;0.90;48.80
49861;DHT22;35761;48.826;9.238;2023-01-29T10:19:06;1.00;48.20
49861;DHT22;35761;48.826;9.238;2023-01-29T10:22:03;1.00;45.40
49861;DHT22;35761;48.826;9.238;2023-01-29T10:24:54;1.00;44.40
49861;DHT22;35761;48.826;9.238;2023-01-29T10:27:32;1.10;44.30
49861;DHT22;35761;48.826;9.238;2023-01-29T10:30:05;1.00;44.00
49861;DHT22;35761;48.826;9.238;2023-01-29T10:32:36;1.00;44.60
49861;DHT22;35761;48.826;9.238;2023-01-29T10:35:21;1.10;45.10
49861;DHT22;35761;48.826;9.238;2023-01-29T10:37:52;1.10;45.10
49861;DHT22;35761;48.826;9.238;2023-01-29T10:40:26;1.10;44.30
49861;DHT22;35761;48.826;9.238;2023-01-29T10:43:02;1.10;43.80
49861;DHT22;35761;48.826;9.238;2023-01-29T10:45:39;1.10;43.80
49861;DHT22;35761;48.826;9.238;2023-01-29T10:48:43;1.20;44.10
49861;DHT22;35761;48.826;9.238;2023-01-29T10:51:29;1.20;45.60
49861;DHT22;35761;48.826;9.238;2023-01-29T10:54:13;1.20;45.40
49861;DHT22;35761;48.826;9.238;2023-01-29T10:57:00;1.20;44.70
49861;DHT22;35761;48.826;9.238;2023-01-29T10:59:43;1.30;44.80
49861;DHT22;35761;48.826;9.238;2023-01-29T11:02:20;1.30;45.40
49861;DHT22;35761;48.826;9.238;2023-01-29T11:04:49;1.40;45.50
49861;DHT22;35761;48.826;9.238;2023-01-29T11:07:18;1.50;45.40
49861;DHT22;35761;48.826;9.238;2023-01-29T11:09:53;1.50;45.30
49861;DHT22;35761;48.826;9.238;2023-01-29T11:12:27;1.50;44.80
49861;DHT22;35761;48.826;9.238;2023-01-29T11:15:00;1.50;44.00
49861;DHT22;35761;48.826;9.238;2023-01-29T11:17:31;1.50;44.40
49861;DHT22;35761;48.826;9.238;2023-01-29T11:19:59;1.60;44.70
49861;DHT22;35761;48.826;9.238;2023-01-29T11:22:29;1.60;43.20
49861;DHT22;35761;48.826;9.238;2023-01-29T11:25:09;1.60;43.10
49861;DHT22;35761;48.826;9.238;2023-01-29T11:27:45;1.50;43.30
49861;DHT22;35761;48.826;9.238;2023-01-29T11:30:18;1.60;43.70
49861;DHT22;35761;48.826;9.238;2023-01-29T11:32:51;1.60;43.10
49861;DHT22;35761;48.826;9.238;2023-01-29T11:35:25;1.70;43.30
49861;DHT22;35761;48.826;9.238;2023-01-29T11:38:06;1.70;43.70
49861;DHT22;35761;48.826;9.238;2023-01-29T11:40:38;1.80;44.30
49861;DHT22;35761;48.826;9.238;2023-01-29T11:43:27;1.80;44.80
49861;DHT22;35761;48.826;9.238;2023-01-29T11:45:59;1.80;44.10
49861;DHT22;35761;48.826;9.238;2023-01-29T11:48:34;1.90;43.60
49861;DHT22;35761;48.826;9.238;2023-01-29T11:51:10;1.90;43.50
49861;DHT22;35761;48.826;9.238;2023-01-29T11:53:41;1.90;43.10
49861;DHT22;35761;48.826;9.238;2023-01-29T11:56:21;2.00;42.70
49861;DHT22;35761;48.826;9.238;2023-01-29T11:58:54;2.00;41.90
49861;DHT22;35761;48.826;9.238;2023-01-29T12:01:30;2.00;41.80
49861;DHT22;35761;48.826;9.238;2023-01-29T12:04:00;2.00;41.60
49861;DHT22;35761;48.826;9.238;2023-01-29T12:06:33;2.10;41.70
49861;DHT22;35761;48.826;9.238;2023-01-29T12:09:09;2.10;41.90
49861;DHT22;35761;48.826;9.238;2023-01-29T12:11:42;2.10;41.70
49861;DHT22;35761;48.826;9.238;2023-01-29T12:14:26;2.20;40.90
49861;DHT22;35761;48.826;9.238;2023-01-29T12:16:58;2.20;40.30
49861;DHT22;35761;48.826;9.238;2023-01-29T12:19:33;2.20;40.20
49861;DHT22;35761;48.826;9.238;2023-01-29T12:22:09;2.30;40.00
49861;DHT22;35761;48.826;9.238;2023-01-29T12:24:49;2.40;39.30
49861;DHT22;35761;48.826;9.238;2023-01-29T12:27:24;2.50;39.20
49861;DHT22;35761;48.826;9.238;2023-01-29T12:30:00;2.60;38.80
49861;DHT22;35761;48.826;9.238;2023-01-29T12:32:38;2.70;44.50
49861;DHT22;35761;48.826;9.238;2023-01-29T12:35:17;2.70;54.10
49861;DHT22;35761;48.826;9.238;2023-01-29T12:37:53;2.90;58.20
49861;DHT22;35761;48.826;9.238;2023-01-29T12:40:24;3.00;55.20
49861;DHT22;35761;48.826;9.238;2023-01-29T12:42:58;3.00;52.30
49861;DHT22;35761;48.826;9.238;2023-01-29T12:45:32;3.20;58.10
49861;DHT22;35761;48.826;9.238;2023-01-29T12:48:06;3.20;38.10
49861;DHT22;35761;48.826;9.238;2023-01-29T12:50:36;3.30;51.00
49861;DHT22;35761;48.826;9.238;2023-01-29T12:55:52;3.20;74.90
49861;DHT22;35761;48.826;9.238;2023-01-29T12:58:24;3.40;74.70
49861;DHT22;35761;48.826;9.238;2023-01-29T13:01:01;3.50;82.20
49861;DHT22;35761;48.826;9.238;2023-01-29T13:06:09;3.50;35.10
49861;DHT22;35761;48.826;9.238;2023-01-29T13:08:42;3.70;36.90
49861;DHT22;35761;48.826;9.238;2023-01-29T13:13:51;3.80;31.90
49861;DHT22;35761;48.826;9.238;2023-01-29T13:16:26;3.80;32.30
49861;DHT22;35761;48.826;9.238;2023-01-29T13:18:59;4.00;32.20
49861;DHT22;35761;48.826;9.238;2023-01-29T13:21:33;4.00;32.00
49861;DHT22;35761;48.826;9.238;2023-01-29T13:24:09;4.10;31.30
49861;DHT22;35761;48.826;9.238;2023-01-29T13:26:39;4.10;31.80
49861;DHT22;35761;48.826;9.238;2023-01-29T13:29:20;4.20;31.90
49861;DHT22;35761;48.826;9.238;2023-01-29T13:31:52;4.20;31.50
49861;DHT22;35761;48.826;9.238;2023-01-29T13:34:24;4.20;31.70
49861;DHT22;35761;48.826;9.238;2023-01-29T13:36:56;4.20;31.40
49861;DHT22;35761;48.826;9.238;2023-01-29T13:39:28;4.30;30.90
49861;DHT22;35761;48.826;9.238;2023-01-29T13:41:59;4.40;31.00
49861;DHT22;35761;48.826;9.238;2023-01-29T13:44:36;4.40;30.70
49861;DHT22;35761;48.826;9.238;2023-01-29T13:47:07;4.50;30.70
49861;DHT22;35761;48.826;9.238;2023-01-29T13:49:39;4.50;30.90
49861;DHT22;35761;48.826;9.238;2023-01-29T13:52:29;4.50;30.80
49861;DHT22;35761;48.826;9.238;2023-01-29T13:55:03;4.50;31.00
49861;DHT22;35761;48.826;9.238;2023-01-29T13:57:49;4.50;30.10
49861;DHT22;35761;48.826;9.238;2023-01-29T14:00:55;4.50;30.60
49861;DHT22;35761;48.826;9.238;2023-01-29T14:03:44;4.40;30.80
49861;DHT22;35761;48.826;9.238;2023-01-29T14:06:37;4.40;30.70
49861;DHT22;35761;48.826;9.238;2023-01-29T14:12:43;4.20;30.80
49861;DHT22;35761;48.826;9.238;2023-01-29T14:18:18;4.10;31.00
49861;DHT22;35761;48.826;9.238;2023-01-29T14:20:55;4.20;32.00
49861;DHT22;35761;48.826;9.238;2023-01-29T14:23:39;4.20;31.50
49861;DHT22;35761;48.826;9.238;2023-01-29T14:26:26;4.10;31.20
49861;DHT22;35761;48.826;9.238;2023-01-29T14:29:03;4.00;31.10
49861;DHT22;35761;48.826;9.238;2023-01-29T14:31:42;4.00;31.00
49861;DHT22;35761;48.826;9.238;2023-01-29T14:34:22;4.00;31.30
49861;DHT22;35761;48.826;9.238;2023-01-29T14:36:55;4.10;31.70
49861;DHT22;35761;48.826;9.238;2023-01-29T14:39:32;4.10;31.70
49861;DHT22;35761;48.826;9.238;2023-01-29T14:42:14;4.20;31.20
49861;DHT22;35761;48.826;9.238;2023-01-29T14:44:58;4.30;31.30
49861;DHT22;35761;48.826;9.238;2023-01-29T14:47:57;4.30;31.10
49861;DHT22;35761;48.826;9.238;2023-01-29T14:50:52;4.40;31.00
49861;DHT22;35761;48.826;9.238;2023-01-29T14:53:33;4.40;30.80
49861;DHT22;35761;48.826;9.238;2023-01-29T14:56:14;4.50;30.80
49861;DHT22;35761;48.826;9.238;2023-01-29T14:58:47;4.40;30.80
49861;DHT22;35761;48.826;9.238;2023-01-29T15:01:21;4.60;30.50
49861;DHT22;35761;48.826;9.238;2023-01-29T15:04:02;4.60;30.60
49861;DHT22;35761;48.826;9.238;2023-01-29T15:06:34;4.70;30.60
49861;DHT22;35761;48.826;9.238;2023-01-29T15:09:12;4.70;30.40
49861;DHT22;35761;48.826;9.238;2023-01-29T15:14:23;4.70;30.20
49861;DHT22;35761;48.826;9.238;2023-01-29T15:17:13;5.00;29.80
49861;DHT22;35761;48.826;9.238;2023-01-29T15:19:45;5.10;44.10
49861;DHT22;35761;48.826;9.238;2023-01-29T15:25:01;5.30;50.80
49861;DHT22;35761;48.826;9.238;2023-01-29T15:27:33;5.60;41.90
49861;DHT22;35761;48.826;9.238;2023-01-29T15:30:05;5.50;47.40
49861;DHT22;35761;48.826;9.238;2023-01-29T15:32:36;5.50;45.20
49861;DHT22;35761;48.826;9.238;2023-01-29T15:35:08;5.50;28.10
49861;DHT22;35761;48.826;9.238;2023-01-29T15:37:38;5.60;28.50
49861;DHT22;35761;48.826;9.238;2023-01-29T15:40:14;5.60;28.00
49861;DHT22;35761;48.826;9.238;2023-01-29T15:42:45;5.50;28.20
49861;DHT22;35761;48.826;9.238;2023-01-29T15:45:26;5.40;28.40
49861;DHT22;35761;48.826;9.238;2023-01-29T15:48:04;5.40;28.50
49861;DHT22;35761;48.826;9.238;2023-01-29T15:50:37;5.40;28.40
49861;DHT22;35761;48.826;9.238;2023-01-29T15:53:12;5.40;28.20
49861;DHT22;35761;48.826;9.238;2023-01-29T15:55:42;5.40;28.20
49861;DHT22;35761;48.826;9.238;2023-01-29T15:58:15;5.30;27.60
49861;DHT22;35761;48.826;9.238;2023-01-29T16:00:48;5.10;27.20
49861;DHT22;35761;48.826;9.238;2023-01-29T16:03:20;5.10;28.30
49861;DHT22;35761;48.826;9.238;2023-01-29T16:05:51;4.90;28.10
49861;DHT22;35761;48.826;9.238;2023-01-29T16:08:20;4.90;28.80
49861;DHT22;35761;48.826;9.238;2023-01-29T16:10:54;4.90;28.90
49861;DHT22;35761;48.826;9.238;2023-01-29T16:13:25;4.70;28.90
49861;DHT22;35761;48.826;9.238;2023-01-29T16:15:57;4.60;29.30
49861;DHT22;35761;48.826;9.238;2023-01-29T16:18:29;4.50;29.40
49861;DHT22;35761;48.826;9.238;2023-01-29T16:21:05;4.40;29.80
49861;DHT22;35761;48.826;9.238;2023-01-29T16:23:39;4.30;30.10
49861;DHT22;35761;48.826;9.238;2023-01-29T16:26:15;4.20;30.20
49861;DHT22;35761;48.826;9.238;2023-01-29T16:28:46;4.10;30.30
49861;DHT22;35761;48.826;9.238;2023-01-29T16:31:20;4.20;30.90
49861;DHT22;35761;48.826;9.238;2023-01-29T16:33:51;4.20;30.80
49861;DHT22;35761;48.826;9.238;2023-01-29T16:36:21;4.10;30.70
49861;DHT22;35761;48.826;9.238;2023-01-29T16:38:53;4.10;30.80
49861;DHT22;35761;48.826;9.238;2023-01-29T16:41:32;4.10;31.00
49861;DHT22;35761;48.826;9.238;2023-01-29T16:44:02;4.10;30.80
49861;DHT22;35761;48.826;9.238;2023-01-29T16:46:34;4.20;30.80
49861;DHT22;35761;48.826;9.238;2023-01-29T16:52:15;4.00;30.50